Time;durP1;ratioP1;P1;durP2;ratioP2;P2;SDS_P1;SDS_P2;PMS_P1;PMS_P2;Temp;Humidity;BMP_temperature;BMP_pressure;BME280_temperature;BME280_humidity;BME280_pressure;Samples;Min_cycle;Max_cycle;Signal;HPM_P1;HPM_P2
2022/01/29 00:00:06;;;;;;;0.60;0.60;;;;;;;1.00;80.55;98480.72;29373;310;63009;-59
2022/01/29 00:00:40;;;;;;;0.60;0.60;;;;;;;0.98;80.55;98477.41;29373;335;63005;-58
2022/01/29 00:01:12;;;;;;;0.60;0.60;;;;;;;0.97;80.32;98481.09;29373;342;63009;-60
2022/01/29 00:01:43;;;;;;;0.60;0.60;;;;;;;0.95;80.49;98483.97;29373;268;63005;-59
2022/01/29 00:02:19;;;;;;;0.60;0.60;;;;;;;0.97;80.43;98481.09;29371;247;64009;-57
2022/01/29 00:02:50;;;;;;;0.60;0.60;;;;;;;0.97;80.66;98486.44;29373;229;63004;-58
2022/01/29 00:03:30;;;;;;;0.60;0.60;;;;;;;0.95;80.58;98480.47;29373;333;63025;-59
2022/01/29 00:04:02;;;;;;;0.85;0.85;;;;;;;0.94;80.75;98486.84;29373;199;63004;-59
2022/01/29 00:04:33;;;;;;;0.60;0.60;;;;;;;0.95;80.83;98477.81;29373;297;63009;-58
2022/01/29 00:05:05;;;;;;;0.60;0.60;;;;;;;0.94;80.71;98485.00;29373;266;63004;-59
2022/01/29 00:05:36;;;;;;;0.60;0.60;;;;;;;0.96;80.94;98490.97;29373;237;63008;-59
2022/01/29 00:06:10;;;;;;;0.60;0.60;;;;;;;0.93;81.19;98490.53;29373;237;63005;-60
2022/01/29 00:06:41;;;;;;;0.68;0.68;;;;;;;0.93;81.33;98487.84;29372;325;63009;-59
2022/01/29 00:07:13;;;;;;;0.60;0.60;;;;;;;0.90;81.63;98491.75;29373;280;63005;-59
2022/01/29 00:07:44;;;;;;;0.60;0.60;;;;;;;0.88;81.14;98483.09;29371;206;64009;-57
2022/01/29 00:08:16;;;;;;;0.70;0.70;;;;;;;0.92;81.51;98488.88;29373;230;63005;-59
2022/01/29 00:08:54;;;;;;;0.70;0.70;;;;;;;0.95;81.05;98483.97;29373;283;63009;-57
2022/01/29 00:09:26;;;;;;;0.60;0.60;;;;;;;0.97;81.14;98481.94;29373;251;63004;-58
2022/01/29 00:10:02;;;;;;;0.60;0.60;;;;;;;0.97;80.89;98475.75;29373;320;63009;-59
2022/01/29 00:10:34;;;;;;;4.53;4.15;;;;;;;0.95;81.20;98478.63;29373;210;63004;-57
2022/01/29 00:11:14;;;;;;;0.60;0.60;;;;;;;0.94;80.97;98473.47;29373;338;63009;-58
2022/01/29 00:11:45;;;;;;;0.60;0.60;;;;;;;0.94;81.04;98470.81;29371;254;64004;-59
2022/01/29 00:12:17;;;;;;;0.68;0.68;;;;;;;0.94;80.92;98476.97;29373;237;63008;-60
2022/01/29 00:12:48;;;;;;;0.60;0.60;;;;;;;0.94;81.49;98474.31;29373;196;63004;-60
2022/01/29 00:13:19;;;;;;;0.60;0.60;;;;;;;0.96;81.36;98471.44;29371;258;64008;-60
2022/01/29 00:13:50;;;;;;;0.60;0.60;;;;;;;0.96;81.57;98474.09;29373;282;63009;-59
2022/01/29 00:14:22;;;;;;;0.60;0.60;;;;;;;0.96;81.45;98468.75;29373;324;63009;-59
2022/01/29 00:14:53;;;;;;;0.65;0.65;;;;;;;0.95;81.42;98467.09;29373;251;63005;-58
2022/01/29 00:15:25;;;;;;;0.60;0.60;;;;;;;0.94;81.56;98468.13;29373;297;63009;-59
2022/01/29 00:15:56;;;;;;;0.60;0.60;;;;;;;0.93;81.53;98466.47;29373;202;63005;-58
2022/01/29 00:16:28;;;;;;;0.60;0.60;;;;;;;0.91;81.63;98465.84;29373;222;63009;-58
2022/01/29 00:16:59;;;;;;;0.70;0.70;;;;;;;0.91;81.79;98468.50;29373;242;63004;-59
2022/01/29 00:17:31;;;;;;;0.60;0.60;;;;;;;0.90;81.67;98473.03;29371;367;64009;-58
2022/01/29 00:18:03;;;;;;;0.60;0.60;;;;;;;0.90;81.78;98467.69;29373;284;63004;-58
2022/01/29 00:18:35;;;;;;;1.45;1.10;;;;;;;0.90;81.48;98470.34;29395;282;63009;-59
2022/01/29 00:19:08;;;;;;;0.70;0.70;;;;;;;0.89;81.79;98463.34;29373;197;63004;-59
2022/01/29 00:19:41;;;;;;;0.60;0.60;;;;;;;0.90;81.82;98464.19;29373;218;63008;-60
2022/01/29 00:20:13;;;;;;;0.60;0.60;;;;;;;0.90;81.56;98469.53;29395;248;63005;-57
2022/01/29 00:20:44;;;;;;;0.60;0.60;;;;;;;0.90;81.43;98462.34;29395;197;63009;-58
2022/01/29 00:21:17;;;;;;;0.60;0.60;;;;;;;0.90;81.66;98464.19;29395;319;63005;-59
2022/01/29 00:21:48;;;;;;;0.60;0.60;;;;;;;0.91;81.60;98458.66;29371;232;64009;-58
2022/01/29 00:22:20;;;;;;;0.60;0.60;;;;;;;0.91;81.75;98463.16;29373;314;63005;-58
2022/01/29 00:22:51;;;;;;;0.60;0.60;;;;;;;0.89;81.59;98466.03;29373;354;63027;-58
2022/01/29 00:23:26;;;;;;;0.60;0.60;;;;;;;0.89;81.47;98457.19;29371;223;64005;-58
2022/01/29 00:23:57;;;;;;;0.60;0.60;;;;;;;0.89;81.39;98462.53;29373;216;63009;-59
2022/01/29 00:24:31;;;;;;;0.60;0.60;;;;;;;0.88;81.67;98456.34;29373;282;63004;-59
2022/01/29 00:25:03;;;;;;;0.60;0.60;;;;;;;0.86;82.03;98470.94;29373;281;63009;-60
2022/01/29 00:25:34;;;;;;;0.65;0.65;;;;;;;0.84;81.74;98464.94;29373;298;63004;-60
2022/01/29 00:26:06;;;;;;;0.60;0.60;;;;;;;0.83;81.83;98469.47;29373;329;63009;-58
2022/01/29 00:26:37;;;;;;;0.60;0.60;;;;;;;0.84;82.21;98475.63;29373;218;63004;-58
2022/01/29 00:27:10;;;;;;;0.60;0.60;;;;;;;0.84;82.01;98459.59;29373;212;63008;-58
2022/01/29 00:27:41;;;;;;;0.60;0.60;;;;;;;0.84;82.29;98459.59;29373;202;63015;-57
2022/01/29 00:28:13;;;;;;;0.65;0.65;;;;;;;0.85;81.99;98461.25;29371;310;64009;-59
2022/01/29 00:28:45;;;;;;;0.60;0.60;;;;;;;0.85;82.32;98459.41;29373;209;63005;-59
2022/01/29 00:29:20;;;;;;;0.60;0.60;;;;;;;0.84;82.37;98462.28;29373;326;63016;-59
2022/01/29 00:29:52;;;;;;;0.60;0.60;;;;;;;0.82;82.17;98458.97;29395;364;63005;-59
2022/01/29 00:30:30;;;;;;;0.60;0.60;;;;;;;0.81;81.96;98447.44;29373;283;63009;-58
2022/01/29 00:31:03;;;;;;;0.60;0.60;;;;;;;0.81;82.19;98449.31;29373;204;63005;-58
2022/01/29 00:31:37;;;;;;;0.60;0.60;;;;;;;0.82;82.02;98449.09;29373;225;63009;-58
2022/01/29 00:32:13;;;;;;;0.60;0.60;;;;;;;0.85;81.88;98454.06;29373;350;63004;-58
2022/01/29 00:32:45;;;;;;;0.60;0.60;;;;;;;0.85;82.14;98461.25;29373;202;63009;-58
2022/01/29 00:33:16;;;;;;;0.60;0.60;;;;;;;0.86;81.81;98457.56;29371;343;64004;-57
2022/01/29 00:33:51;;;;;;;0.60;0.60;;;;;;;0.86;82.17;98452.22;29371;202;64009;-59
2022/01/29 00:34:22;;;;;;;0.60;0.60;;;;;;;0.85;82.06;98451.41;29395;208;63004;-60
2022/01/29 00:34:56;;;;;;;0.60;0.60;;;;;;;0.86;81.87;98452.22;29373;213;63008;-60
2022/01/29 00:35:28;;;;;;;0.93;0.93;;;;;;;0.85;82.50;98456.75;29395;267;63005;-58
2022/01/29 00:35:59;;;;;;;0.60;0.60;;;;;;;0.84;82.22;98448.91;29373;267;63009;-58
2022/01/29 00:36:30;;;;;;;0.60;0.60;;;;;;;0.83;82.44;98452.59;29373;198;63005;-57
2022/01/29 00:37:02;;;;;;;0.60;0.60;;;;;;;0.81;82.17;98454.66;29373;222;63009;-61
2022/01/29 00:37:33;;;;;;;0.68;0.68;;;;;;;0.81;82.07;98444.78;29371;209;64005;-58
2022/01/29 00:38:05;;;;;;;0.60;0.60;;;;;;;0.81;82.04;98454.66;29373;302;63009;-58
2022/01/29 00:38:36;;;;;;;0.70;0.70;;;;;;;0.80;82.36;98448.47;29373;238;63017;-58
2022/01/29 00:39:07;;;;;;;0.60;0.60;;;;;;;0.83;82.16;98441.91;29371;318;64009;-62
2022/01/29 00:39:39;;;;;;;0.60;0.60;;;;;;;0.88;81.89;98444.84;29373;239;63008;-58
2022/01/29 00:40:13;;;;;;;0.70;0.70;;;;;;;0.89;81.94;98441.16;29371;260;64009;-61
2022/01/29 00:40:45;;;;;;;0.60;0.60;;;;;;;0.88;82.00;98442.16;29373;303;63004;-60
2022/01/29 00:41:16;;;;;;;0.60;0.60;;;;;;;0.87;81.65;98444.00;29373;225;63009;-59
2022/01/29 00:41:48;;;;;;;0.68;0.68;;;;;;;0.87;82.10;98437.84;29373;294;63004;-59
2022/01/29 00:42:19;;;;;;;0.60;0.60;;;;;;;0.85;82.23;98442.56;29373;277;63008;-58
2022/01/29 00:42:53;;;;;;;0.60;0.60;;;;;;;0.83;82.63;98441.91;29395;365;63005;-59
2022/01/29 00:43:25;;;;;;;0.60;0.60;;;;;;;0.80;82.20;98436.97;29373;200;63009;-59
2022/01/29 00:43:56;;;;;;;1.02;1.02;;;;;;;0.81;82.15;98433.28;29371;285;64005;-59
2022/01/29 00:44:29;;;;;;;0.70;0.70;;;;;;;0.82;81.94;98434.91;29373;223;63012;-59
2022/01/29 00:45:01;;;;;;;0.60;0.60;;;;;;;0.81;82.01;98433.28;29394;200;64014;-56
2022/01/29 00:45:33;;;;;;;0.60;0.60;;;;;;;0.81;81.85;98438.59;29395;268;63009;-58
2022/01/29 00:46:04;;;;;;;0.60;0.60;;;;;;;0.82;81.92;98435.75;29373;314;63005;-57
2022/01/29 00:46:41;;;;;;;0.60;0.60;;;;;;;0.81;81.79;98434.09;29373;346;63009;-59
2022/01/29 00:47:14;;;;;;;0.60;0.60;;;;;;;0.81;82.00;98422.56;29373;331;63004;-58
2022/01/29 00:47:45;;;;;;;0.60;0.60;;;;;;;0.81;81.98;98431.41;29373;216;63009;-59
2022/01/29 00:48:16;;;;;;;0.60;0.60;;;;;;;0.81;82.07;98426.06;29373;280;63004;-58
2022/01/29 00:48:48;;;;;;;0.60;0.60;;;;;;;0.82;81.93;98421.56;29394;303;64009;-59
2022/01/29 00:49:20;;;;;;;0.60;0.60;;;;;;;0.85;81.94;98424.69;29373;228;63004;-58
2022/01/29 00:49:51;;;;;;;0.60;0.60;;;;;;;0.84;81.45;98419.53;29371;214;64008;-59
2022/01/29 00:50:24;;;;;;;0.60;0.60;;;;;;;0.83;81.47;98420.53;29373;266;63005;-59
2022/01/29 00:50:57;;;;;;;0.60;0.60;;;;;;;0.84;81.49;98416.84;29373;335;63009;-57
2022/01/29 00:51:28;;;;;;;0.60;0.60;;;;;;;0.85;81.61;98414.00;29373;264;63016;-60
2022/01/29 00:51:59;;;;;;;0.60;0.60;;;;;;;0.84;81.55;98407.00;29373;274;63009;-58
2022/01/29 00:52:31;;;;;;;0.60;0.60;;;;;;;0.86;81.21;98414.81;29371;196;64005;-59
2022/01/29 00:53:02;;;;;;;0.60;0.60;;;;;;;0.88;81.57;98402.91;29373;213;63009;-58
2022/01/29 00:53:33;;;;;;;0.60;0.60;;;;;;;0.89;81.56;98398.41;29373;198;63005;-59
2022/01/29 00:54:05;;;;;;;0.70;0.70;;;;;;;0.92;81.32;98411.38;29371;199;64009;-58
2022/01/29 00:54:37;;;;;;;0.60;0.60;;;;;;;0.90;81.04;98411.56;29373;196;63004;-60
2022/01/29 00:55:10;;;;;;;0.62;0.62;;;;;;;0.89;81.20;98403.75;29373;210;63009;-59
2022/01/29 00:55:41;;;;;;;0.60;0.60;;;;;;;0.89;81.25;98407.25;29373;275;63004;-58
2022/01/29 00:56:12;;;;;;;0.60;0.60;;;;;;;0.92;81.18;98408.69;29373;235;63009;-57
2022/01/29 00:56:44;;;;;;;0.60;0.60;;;;;;;0.93;81.15;98405.00;29373;234;63004;-60
2022/01/29 00:57:16;;;;;;;0.60;0.60;;;;;;;0.90;81.26;98400.03;29373;242;63008;-58
2022/01/29 00:57:47;;;;;;;0.60;0.60;;;;;;;0.89;81.05;98395.72;29373;254;63004;-58
2022/01/29 00:58:18;;;;;;;0.60;0.60;;;;;;;0.87;81.36;98395.91;29373;297;63009;-58
2022/01/29 00:58:50;;;;;;;0.60;0.60;;;;;;;0.83;81.15;98400.00;29371;320;64005;-57
2022/01/29 00:59:22;;;;;;;0.60;0.60;;;;;;;0.83;81.19;98404.50;29373;313;63009;-59
2022/01/29 00:59:54;;;;;;;0.60;0.60;;;;;;;0.85;81.20;98402.47;29373;243;63005;-59
2022/01/29 01:00:26;;;;;;;0.60;0.60;;;;;;;0.84;81.21;98400.81;29373;321;63009;-59
2022/01/29 01:00:58;;;;;;;0.60;0.60;;;;;;;0.84;81.23;98400.81;29373;243;63000;-59
2022/01/29 01:01:31;;;;;;;0.60;0.60;;;;;;;0.83;81.38;98407.19;29373;209;63009;-60
2022/01/29 01:02:03;;;;;;;0.60;0.60;;;;;;;0.83;81.03;98409.84;29373;299;63005;-58
2022/01/29 01:02:35;;;;;;;0.60;0.60;;;;;;;0.84;81.16;98408.84;29373;261;63009;-59
2022/01/29 01:03:06;;;;;;;0.90;0.90;;;;;;;0.84;81.42;98404.31;29373;320;63004;-59
2022/01/29 01:03:38;;;;;;;0.60;0.60;;;;;;;0.84;81.33;98403.50;29373;289;63009;-58
2022/01/29 01:04:10;;;;;;;0.60;0.60;;;;;;;0.84;80.90;98403.50;29371;362;64004;-59
2022/01/29 01:04:41;;;;;;;0.60;0.60;;;;;;;0.79;81.05;98392.56;29373;362;63008;-58
2022/01/29 01:05:13;;;;;;;0.60;0.60;;;;;;;0.83;81.15;98399.16;29373;208;63004;-58
2022/01/29 01:05:45;;;;;;;0.60;0.60;;;;;;;0.84;81.28;98400.81;29373;278;63009;-59
2022/01/29 01:06:17;;;;;;;0.60;0.60;;;;;;;0.83;81.32;98397.31;29373;227;63005;-60
2022/01/29 01:06:48;;;;;;;0.60;0.60;;;;;;;0.86;80.96;98398.78;29373;322;63009;-58
2022/01/29 01:07:19;;;;;;;0.60;0.60;;;;;;;0.87;81.19;98401.25;29373;232;63005;-58
2022/01/29 01:07:52;;;;;;;0.60;0.60;;;;;;;0.88;81.14;98402.09;29373;202;63009;-57
2022/01/29 01:08:24;;;;;;;0.70;0.70;;;;;;;0.91;81.04;98394.50;29373;212;63005;-59
2022/01/29 01:08:55;;;;;;;0.60;0.60;;;;;;;0.90;80.72;98395.53;29373;276;63009;-60
2022/01/29 01:09:26;;;;;;;0.60;0.60;;;;;;;0.95;80.59;98397.62;29371;230;64004;-59
2022/01/29 01:09:59;;;;;;;0.60;0.60;;;;;;;0.95;80.30;98397.62;29373;316;63009;-59
2022/01/29 01:10:30;;;;;;;0.60;0.60;;;;;;;0.95;80.47;98393.09;29373;348;63004;-59
2022/01/29 01:11:04;;;;;;;0.70;0.70;;;;;;;0.97;80.05;98406.28;29373;206;63009;-58
2022/01/29 01:11:35;;;;;;;0.60;0.60;;;;;;;0.99;80.17;98404.22;29373;262;63004;-59
2022/01/29 01:12:07;;;;;;;0.68;0.68;;;;;;;1.00;80.37;98400.53;29373;355;63008;-59
2022/01/29 01:12:39;;;;;;;0.60;0.60;;;;;;;1.02;80.04;98403.84;29373;229;63004;-59
2022/01/29 01:13:10;;;;;;;0.60;0.60;;;;;;;1.01;79.71;98407.53;29372;259;63009;-58
2022/01/29 01:13:42;;;;;;;0.60;0.60;;;;;;;0.99;80.16;98398.88;29373;316;63005;-60
2022/01/29 01:14:13;;;;;;;0.70;0.70;;;;;;;0.96;79.85;98407.28;29373;236;63009;-58
2022/01/29 01:14:45;;;;;;;0.60;0.60;;;;;;;0.92;80.01;98404.19;29371;297;64005;-59
2022/01/29 01:15:16;;;;;;;0.60;0.60;;;;;;;0.93;80.17;98410.34;29373;217;63009;-59
2022/01/29 01:15:47;;;;;;;0.60;0.60;;;;;;;0.92;80.18;98414.03;29371;334;64005;-60
2022/01/29 01:16:18;;;;;;;0.60;0.60;;;;;;;0.92;80.44;98404.19;29373;295;63009;-59
2022/01/29 01:16:51;;;;;;;0.60;0.60;;;;;;;0.92;80.23;98419.38;29373;248;63004;-58
2022/01/29 01:17:22;;;;;;;0.60;0.60;;;;;;;0.91;80.47;98413.22;29373;209;63009;-59
2022/01/29 01:17:54;;;;;;;0.60;0.60;;;;;;;0.93;80.60;98411.19;29371;215;64004;-59
2022/01/29 01:18:25;;;;;;;0.60;0.60;;;;;;;0.94;80.20;98403.97;29373;356;63009;-58
2022/01/29 01:18:56;;;;;;;0.60;0.60;;;;;;;0.93;80.47;98410.34;29373;248;63004;-59
2022/01/29 01:19:27;;;;;;;0.60;0.60;;;;;;;0.91;80.45;98407.03;29373;332;63008;-58
2022/01/29 01:19:58;;;;;;;0.60;0.60;;;;;;;0.91;80.42;98407.03;29373;289;63005;-59
2022/01/29 01:20:30;;;;;;;3.85;3.65;;;;;;;0.92;80.27;98398.00;29373;209;63009;-59
2022/01/29 01:21:01;;;;;;;0.60;0.60;;;;;;;0.90;80.23;98406.22;29373;220;63010;-58
2022/01/29 01:21:32;;;;;;;0.60;0.60;;;;;;;0.90;80.35;98400.03;29373;300;63009;-58
2022/01/29 01:22:04;;;;;;;0.60;0.60;;;;;;;0.89;80.48;98409.09;29373;244;63005;-58
2022/01/29 01:22:36;;;;;;;0.60;0.60;;;;;;;0.88;80.50;98391.41;29371;323;64009;-58
2022/01/29 01:23:07;;;;;;;0.60;0.60;;;;;;;0.93;80.30;98410.34;29373;208;63005;-59
2022/01/29 01:23:38;;;;;;;0.60;0.60;;;;;;;0.93;80.36;98402.34;29373;227;63009;-59
2022/01/29 01:24:09;;;;;;;0.60;0.60;;;;;;;0.93;80.31;98405.84;29373;221;63004;-59
2022/01/29 01:24:42;;;;;;;0.60;0.60;;;;;;;0.97;79.95;98404.44;29373;196;63009;-60
2022/01/29 01:25:13;;;;;;;0.60;0.60;;;;;;;0.99;80.15;98401.56;29373;199;63004;-59
2022/01/29 01:25:44;;;;;;;0.60;0.60;;;;;;;0.99;80.11;98399.72;29371;269;64023;-59
2022/01/29 01:26:15;;;;;;;0.60;0.60;;;;;;;0.99;80.06;98405.06;29373;202;63004;-58
2022/01/29 01:26:50;;;;;;;0.60;0.60;;;;;;;0.99;79.71;98398.88;29373;364;63008;-59
2022/01/29 01:27:22;;;;;;;0.60;0.60;;;;;;;0.99;79.91;98405.06;29373;293;63005;-58
2022/01/29 01:27:53;;;;;;;0.82;0.82;;;;;;;1.08;79.35;98403.03;29373;273;63009;-58
2022/01/29 01:28:24;;;;;;;0.60;0.60;;;;;;;1.12;79.34;98401.63;29373;197;63005;-58
2022/01/29 01:28:56;;;;;;;0.60;0.60;;;;;;;1.10;79.10;98398.31;29373;225;63009;-58
2022/01/29 01:29:27;;;;;;;0.60;0.60;;;;;;;1.09;79.06;98396.66;29373;305;63005;-58
2022/01/29 01:29:58;;;;;;;0.60;0.60;;;;;;;1.07;79.47;98401.37;29371;360;64009;-58
2022/01/29 01:30:30;;;;;;;0.60;0.60;;;;;;;1.06;79.56;98404.25;29373;206;63005;-58
2022/01/29 01:31:03;;;;;;;0.68;0.68;;;;;;;1.06;79.36;98397.06;29373;322;63009;-59
2022/01/29 01:31:34;;;;;;;0.60;0.60;;;;;;;1.12;79.22;98398.13;29373;289;63004;-58
2022/01/29 01:32:10;;;;;;;0.60;0.60;;;;;;;1.12;78.79;98392.78;29373;260;63009;-57
2022/01/29 01:32:41;;;;;;;0.60;0.60;;;;;;;1.10;79.19;98395.66;29371;341;64004;-58
2022/01/29 01:33:15;;;;;;;0.60;0.60;;;;;;;1.09;78.79;98388.66;29373;254;63017;-60
2022/01/29 01:33:47;;;;;;;0.60;0.60;;;;;;;1.06;78.98;98394.38;29373;331;63004;-59
2022/01/29 01:34:21;;;;;;;0.60;0.60;;;;;;;1.03;79.66;98389.47;29373;379;63008;-58
2022/01/29 01:35:05;;;;;;;0.60;0.60;;;;;;;1.01;79.55;98388.81;29373;305;63005;-59
2022/01/29 01:35:43;;;;;;;0.60;0.60;;;;;;;0.99;79.50;98389.03;29373;225;63009;-58
2022/01/29 01:36:18;;;;;;;0.60;0.60;;;;;;;1.00;79.44;98392.53;29373;245;63017;-60
2022/01/29 01:36:57;;;;;;;0.60;0.60;;;;;;;1.00;79.21;98390.69;29371;259;64009;-59
2022/01/29 01:37:42;;;;;;;0.60;0.60;;;;;;;1.01;79.34;98394.16;29373;238;63005;-59
2022/01/29 01:38:19;;;;;;;0.60;0.60;;;;;;;1.02;79.43;98395.00;29373;310;63009;-60
2022/01/29 01:38:55;;;;;;;0.60;0.60;;;;;;;1.00;79.40;98390.69;29371;234;64005;-57
2022/01/29 01:39:30;;;;;;;0.60;0.60;;;;;;;0.99;79.35;98397.03;29373;242;63009;-60
2022/01/29 01:40:08;;;;;;;0.60;0.60;;;;;;;1.03;79.28;98400.16;29371;196;64004;-58
2022/01/29 01:40:42;;;;;;;0.60;0.60;;;;;;;1.14;78.55;98398.75;29373;365;63009;-58
2022/01/29 01:41:17;;;;;;;0.60;0.60;;;;;;;1.14;78.49;98396.91;29371;221;64004;-58
2022/01/29 01:42:03;;;;;;;0.60;0.60;;;;;;;1.12;78.48;98398.94;29371;201;64008;-59
2022/01/29 01:42:35;;;;;;;0.60;0.60;;;;;;;1.08;78.62;98407.56;29373;198;63005;-58
2022/01/29 01:43:06;;;;;;;0.60;0.60;;;;;;;1.07;78.66;98406.72;29373;353;63009;-58
2022/01/29 01:43:38;;;;;;;0.60;0.60;;;;;;;1.07;78.82;98408.56;29371;308;64005;-58
2022/01/29 01:44:11;;;;;;;0.60;0.60;;;;;;;1.09;79.11;98414.56;29373;219;63009;-58
2022/01/29 01:44:48;;;;;;;0.60;0.60;;;;;;;1.08;78.71;98408.37;29373;252;63005;-57
2022/01/29 01:45:20;;;;;;;0.60;0.60;;;;;;;1.08;78.75;98402.22;29373;282;63009;-57
2022/01/29 01:45:51;;;;;;;0.60;0.60;;;;;;;1.07;79.04;98408.56;29373;319;63005;-58
2022/01/29 01:46:22;;;;;;;0.60;0.60;;;;;;;1.06;78.77;98412.28;29373;331;63009;-60
2022/01/29 01:46:54;;;;;;;0.70;0.70;;;;;;;1.07;79.05;98420.09;29373;216;63004;-59
2022/01/29 01:47:28;;;;;;;0.60;0.60;;;;;;;1.07;79.06;98421.94;29371;216;64009;-58
2022/01/29 01:48:04;;;;;;;0.60;0.60;;;;;;;1.07;78.54;98414.75;29373;333;63004;-58
2022/01/29 01:48:36;;;;;;;0.60;0.60;;;;;;;1.04;78.60;98423.16;29373;252;63025;-58
2022/01/29 01:49:07;;;;;;;0.70;0.70;;;;;;;1.03;78.78;98416.19;29373;355;63004;-59
2022/01/29 01:49:39;;;;;;;0.60;0.60;;;;;;;1.03;78.81;98421.53;29373;215;63029;-58
2022/01/29 01:50:10;;;;;;;0.70;0.70;;;;;;;1.03;79.05;98432.22;29373;358;63005;-58
2022/01/29 01:50:43;;;;;;;0.60;0.60;;;;;;;1.03;79.04;98429.56;29373;209;63009;-58
2022/01/29 01:51:15;;;;;;;0.60;0.60;;;;;;;1.00;79.23;98427.28;29371;232;64005;-59
2022/01/29 01:51:46;;;;;;;0.60;0.60;;;;;;;1.00;79.35;98430.78;29373;209;63009;-57
2022/01/29 01:52:21;;;;;;;0.60;0.60;;;;;;;1.00;79.70;98429.94;29373;294;63005;-59
2022/01/29 01:52:53;;;;;;;0.60;0.60;;;;;;;1.00;79.60;98432.63;29373;257;63009;-56
2022/01/29 01:53:25;;;;;;;0.60;0.60;;;;;;;1.01;79.78;98428.91;29373;239;63005;-58
2022/01/29 01:54:01;;;;;;;0.60;0.60;;;;;;;1.01;79.48;98428.91;29373;202;63018;-59
2022/01/29 01:54:33;;;;;;;0.60;0.60;;;;;;;1.02;79.68;98427.06;29373;220;63004;-57
2022/01/29 01:55:05;;;;;;;0.60;0.60;;;;;;;1.03;79.51;98429.56;29371;249;64009;-57
2022/01/29 01:55:37;;;;;;;0.60;0.60;;;;;;;1.04;79.63;98427.72;29373;283;63004;-58
2022/01/29 01:56:08;;;;;;;0.60;0.60;;;;;;;1.04;79.36;98433.84;29373;277;63009;-57
2022/01/29 01:56:39;;;;;;;0.60;0.60;;;;;;;1.04;79.43;98428.50;29371;257;64004;-58
2022/01/29 01:57:11;;;;;;;0.60;0.60;;;;;;;1.03;79.41;98418.88;29373;202;63008;-60
2022/01/29 01:57:42;;;;;;;0.60;0.60;;;;;;;1.02;79.62;98424.41;29373;199;63005;-58
2022/01/29 01:58:17;;;;;;;0.70;0.70;;;;;;;1.01;79.58;98418.22;29373;225;63009;-59
2022/01/29 01:58:49;;;;;;;0.60;0.60;;;;;;;0.99;79.89;98420.28;29372;206;64005;-58
2022/01/29 01:59:20;;;;;;;0.60;0.60;;;;;;;0.98;79.55;98418.63;29373;284;63009;-59
2022/01/29 01:59:51;;;;;;;0.60;0.60;;;;;;;0.98;80.01;98407.94;29395;385;63005;-58
2022/01/29 02:00:26;;;;;;;0.60;0.60;;;;;;;0.98;80.03;98423.97;29371;360;64009;-58
2022/01/29 02:00:57;;;;;;;0.60;0.60;;;;;;;0.98;79.88;98416.78;29371;230;64005;-58
2022/01/29 02:01:28;;;;;;;0.60;0.60;;;;;;;0.98;80.13;98413.28;29373;287;63009;-57
2022/01/29 02:02:00;;;;;;;0.60;0.60;;;;;;;0.98;80.05;98416.78;29373;364;63004;-57
2022/01/29 02:02:31;;;;;;;0.60;0.60;;;;;;;0.96;79.97;98409.97;29373;225;63009;-58
2022/01/29 02:03:02;;;;;;;0.60;0.60;;;;;;;0.95;80.33;98408.31;29373;265;63004;-57
2022/01/29 02:03:35;;;;;;;0.60;0.60;;;;;;;0.94;80.20;98417.34;29373;229;63009;-59
2022/01/29 02:04:07;;;;;;;0.60;0.60;;;;;;;0.93;80.50;98410.34;29373;214;63016;-57
2022/01/29 02:04:39;;;;;;;0.60;0.60;;;;;;;0.91;80.57;98413.22;29373;202;63008;-58
2022/01/29 02:05:12;;;;;;;0.60;0.60;;;;;;;0.91;80.72;98412.38;29373;296;63005;-60
2022/01/29 02:05:45;;;;;;;0.60;0.60;;;;;;;0.90;80.59;98406.22;29373;294;63009;-58
2022/01/29 02:06:20;;;;;;;0.60;0.60;;;;;;;0.89;80.68;98406.41;29371;295;64005;-58
2022/01/29 02:06:53;;;;;;;0.60;0.60;;;;;;;0.89;81.00;98411.75;29371;250;64009;-59
2022/01/29 02:07:24;;;;;;;0.60;0.60;;;;;;;0.90;80.78;98405.41;29371;197;64005;-59
2022/01/29 02:08:02;;;;;;;0.60;0.60;;;;;;;0.91;80.53;98413.22;29373;239;63009;-58
2022/01/29 02:08:33;;;;;;;0.60;0.60;;;;;;;0.91;80.52;98399.84;29373;247;63005;-57
2022/01/29 02:09:04;;;;;;;0.60;0.60;;;;;;;0.92;80.21;98411.38;29373;291;63016;-58
2022/01/29 02:09:38;;;;;;;0.60;0.60;;;;;;;0.91;80.31;98399.84;29373;361;63004;-59
2022/01/29 02:10:12;;;;;;;0.60;0.60;;;;;;;0.91;80.35;98399.03;29371;314;64009;-59
2022/01/29 02:10:48;;;;;;;0.60;0.60;;;;;;;0.91;80.21;98396.34;29371;237;64017;-58
2022/01/29 02:11:20;;;;;;;0.60;0.60;;;;;;;0.91;80.38;98393.69;29373;202;63009;-58
2022/01/29 02:11:57;;;;;;;0.60;0.60;;;;;;;0.96;80.22;98393.94;29373;306;63009;-58
2022/01/29 02:12:32;;;;;;;0.60;0.60;;;;;;;0.98;79.62;98389.22;29373;246;63008;-58
2022/01/29 02:13:04;;;;;;;0.60;0.60;;;;;;;0.99;79.41;98377.50;29373;299;63015;-58
2022/01/29 02:13:36;;;;;;;0.60;0.60;;;;;;;0.98;79.31;98386.53;29373;292;63009;-58
2022/01/29 02:14:09;;;;;;;1.15;1.15;;;;;;;0.97;79.52;98380.38;29371;303;64005;-58
2022/01/29 02:14:41;;;;;;;0.60;0.60;;;;;;;0.98;79.88;98386.53;29373;197;63009;-58
2022/01/29 02:15:15;;;;;;;0.60;0.60;;;;;;;0.99;79.74;98377.50;29373;269;63005;-58
2022/01/29 02:15:47;;;;;;;0.60;0.60;;;;;;;1.03;79.78;98373.41;29373;240;63009;-59
2022/01/29 02:16:18;;;;;;;0.60;0.60;;;;;;;1.03;79.36;98381.44;29373;207;63004;-60
2022/01/29 02:16:50;;;;;;;0.60;0.60;;;;;;;1.03;79.29;98368.06;29371;212;64009;-58
2022/01/29 02:17:21;;;;;;;0.60;0.60;;;;;;;1.02;79.25;98371.78;29373;312;63004;-57
2022/01/29 02:17:57;;;;;;;0.60;0.60;;;;;;;1.01;79.10;98370.13;29373;334;63009;-58
2022/01/29 02:18:31;;;;;;;0.60;0.60;;;;;;;1.02;79.27;98371.78;29373;289;63009;-60
2022/01/29 02:19:03;;;;;;;0.60;0.60;;;;;;;1.02;79.00;98368.28;29373;261;63008;-57
2022/01/29 02:19:35;;;;;;;0.60;0.60;;;;;;;1.00;79.20;98369.28;29371;322;64004;-59
2022/01/29 02:20:08;;;;;;;0.60;0.60;;;;;;;1.00;79.10;98363.94;29373;235;63008;-58
2022/01/29 02:20:42;;;;;;;0.60;0.60;;;;;;;1.03;78.92;98370.75;29373;341;63005;-58
2022/01/29 02:21:15;;;;;;;0.60;0.60;;;;;;;1.03;78.94;98361.91;29373;323;63009;-60
2022/01/29 02:21:47;;;;;;;0.60;0.60;;;;;;;1.04;79.17;98353.66;29373;248;63005;-60
2022/01/29 02:22:18;;;;;;;0.60;0.60;;;;;;;1.03;79.05;98356.56;29371;223;64009;-61
2022/01/29 02:22:51;;;;;;;0.60;0.60;;;;;;;1.04;78.93;98359.00;29373;202;63005;-58
2022/01/29 02:23:22;;;;;;;0.60;0.60;;;;;;;1.02;79.10;98354.91;29371;224;64009;-58
2022/01/29 02:23:54;;;;;;;1.20;1.20;;;;;;;1.00;78.90;98358.59;29371;272;64004;-59
2022/01/29 02:24:27;;;;;;;0.60;0.60;;;;;;;1.00;79.31;98352.44;29373;326;63009;-59
2022/01/29 02:24:58;;;;;;;0.60;0.60;;;;;;;0.99;79.32;98351.59;29373;351;63004;-59
2022/01/29 02:25:38;;;;;;;0.60;0.60;;;;;;;0.98;79.08;98354.47;29373;216;63009;-59
2022/01/29 02:26:10;;;;;;;0.68;0.68;;;;;;;0.95;79.40;98357.53;29395;202;63004;-60
2022/01/29 02:26:42;;;;;;;0.60;0.60;;;;;;;0.91;79.42;98354.41;29395;256;63008;-60
2022/01/29 02:27:13;;;;;;;0.60;0.60;;;;;;;0.91;79.55;98356.28;29373;228;63005;-58
2022/01/29 02:27:44;;;;;;;0.60;0.60;;;;;;;0.90;79.24;98352.78;29373;238;63009;-60
2022/01/29 02:28:21;;;;;;;0.60;0.60;;;;;;;0.89;79.79;98350.28;29373;285;63001;-58
2022/01/29 02:28:54;;;;;;;0.80;0.80;;;;;;;0.89;79.53;98344.94;29373;258;63009;-58
2022/01/29 02:29:25;;;;;;;0.60;0.60;;;;;;;0.93;79.62;98347.03;29371;202;64015;-60
2022/01/29 02:29:58;;;;;;;0.60;0.60;;;;;;;0.93;79.38;98340.88;29373;202;63009;-60
2022/01/29 02:30:32;;;;;;;0.60;0.60;;;;;;;0.94;79.72;98347.87;29373;331;63005;-61
2022/01/29 02:31:04;;;;;;;0.60;0.60;;;;;;;0.94;79.28;98339.84;29373;206;63009;-60
2022/01/29 02:31:44;;;;;;;0.60;0.60;;;;;;;0.94;79.42;98337.16;29373;361;63004;-57
2022/01/29 02:32:15;;;;;;;0.60;0.60;;;;;;;0.93;79.38;98335.53;29373;314;63009;-59
2022/01/29 02:32:49;;;;;;;0.60;0.60;;;;;;;0.92;79.43;98336.53;29373;197;63004;-61
2022/01/29 02:33:21;;;;;;;0.60;0.60;;;;;;;1.02;78.69;98339.69;29373;284;63009;-58
2022/01/29 02:33:52;;;;;;;0.60;0.60;;;;;;;1.03;78.83;98333.31;29373;361;63000;-60
2022/01/29 02:34:24;;;;;;;0.60;0.60;;;;;;;1.04;78.49;98337.63;29371;302;64009;-61
2022/01/29 02:34:56;;;;;;;0.60;0.60;;;;;;;1.01;78.47;98332.69;29371;261;64005;-60
2022/01/29 02:35:27;;;;;;;0.60;0.60;;;;;;;0.98;78.72;98333.09;29373;362;63009;-60
2022/01/29 02:35:59;;;;;;;0.60;0.60;;;;;;;0.96;79.16;98343.16;29373;232;63005;-61
2022/01/29 02:36:30;;;;;;;0.60;0.60;;;;;;;0.93;79.20;98341.69;29373;265;63009;-60
2022/01/29 02:37:02;;;;;;;0.60;0.60;;;;;;;0.92;79.33;98333.88;29373;276;63005;-60